sensor_id;sensor_type;location;lat;lon;timestamp;P1;durP1;ratioP1;P2;durP2;ratioP2
25948;SDS011;13961;51.178;4.448;2022-07-29T00:01:47;4.78;;;1.70;;
25948;SDS011;13961;51.178;4.448;2022-07-29T00:04:13;2.88;;;1.38;;
25948;SDS011;13961;51.178;4.448;2022-07-29T00:06:40;5.43;;;1.55;;
25948;SDS011;13961;51.178;4.448;2022-07-29T00:09:06;3.58;;;1.40;;
25948;SDS011;13961;51.178;4.448;2022-07-29T00:11:32;3.20;;;1.55;;
25948;SDS011;13961;51.178;4.448;2022-07-29T00:13:57;2.95;;;1.58;;
25948;SDS011;13961;51.178;4.448;2022-07-29T00:16:23;3.80;;;1.85;;
25948;SDS011;13961;51.178;4.448;2022-07-29T00:18:49;3.90;;;1.58;;
25948;SDS011;13961;51.178;4.448;2022-07-29T00:21:14;3.20;;;1.50;;
25948;SDS011;13961;51.178;4.448;2022-07-29T00:23:40;2.90;;;1.58;;
25948;SDS011;13961;51.178;4.448;2022-07-29T00:26:06;5.53;;;1.50;;
25948;SDS011;13961;51.178;4.448;2022-07-29T00:28:31;2.97;;;1.40;;
25948;SDS011;13961;51.178;4.448;2022-07-29T00:30:57;2.83;;;1.60;;
25948;SDS011;13961;51.178;4.448;2022-07-29T00:33:23;2.92;;;1.50;;
25948;SDS011;13961;51.178;4.448;2022-07-29T00:35:49;2.47;;;1.30;;
25948;SDS011;13961;51.178;4.448;2022-07-29T00:38:15;8.43;;;1.98;;
25948;SDS011;13961;51.178;4.448;2022-07-29T00:40:43;4.22;;;1.67;;
25948;SDS011;13961;51.178;4.448;2022-07-29T00:43:09;3.38;;;1.60;;
25948;SDS011;13961;51.178;4.448;2022-07-29T00:45:35;2.92;;;1.48;;
25948;SDS011;13961;51.178;4.448;2022-07-29T00:48:01;3.60;;;1.58;;
25948;SDS011;13961;51.178;4.448;2022-07-29T00:50:29;3.05;;;1.80;;
25948;SDS011;13961;51.178;4.448;2022-07-29T00:52:56;2.30;;;1.70;;
25948;SDS011;13961;51.178;4.448;2022-07-29T00:55:21;2.00;;;1.58;;
25948;SDS011;13961;51.178;4.448;2022-07-29T00:57:47;4.55;;;1.73;;
25948;SDS011;13961;51.178;4.448;2022-07-29T01:00:15;2.55;;;1.40;;
25948;SDS011;13961;51.178;4.448;2022-07-29T01:02:47;4.80;;;1.92;;
25948;SDS011;13961;51.178;4.448;2022-07-29T01:05:13;3.28;;;1.60;;
25948;SDS011;13961;51.178;4.448;2022-07-29T01:07:41;2.53;;;1.67;;
25948;SDS011;13961;51.178;4.448;2022-07-29T01:10:08;2.00;;;1.42;;
25948;SDS011;13961;51.178;4.448;2022-07-29T01:12:36;2.65;;;1.60;;
25948;SDS011;13961;51.178;4.448;2022-07-29T01:15:04;4.75;;;1.60;;
25948;SDS011;13961;51.178;4.448;2022-07-29T01:17:33;3.40;;;1.52;;
25948;SDS011;13961;51.178;4.448;2022-07-29T01:27:51;4.00;;;1.75;;
25948;SDS011;13961;51.178;4.448;2022-07-29T01:30:33;2.92;;;1.58;;
25948;SDS011;13961;51.178;4.448;2022-07-29T01:33:02;2.85;;;1.88;;
25948;SDS011;13961;51.178;4.448;2022-07-29T01:35:38;3.13;;;2.20;;
25948;SDS011;13961;51.178;4.448;2022-07-29T01:38:09;4.10;;;1.63;;
25948;SDS011;13961;51.178;4.448;2022-07-29T01:40:52;2.53;;;1.70;;
25948;SDS011;13961;51.178;4.448;2022-07-29T01:43:25;4.05;;;2.00;;
25948;SDS011;13961;51.178;4.448;2022-07-29T01:45:58;4.40;;;2.17;;
25948;SDS011;13961;51.178;4.448;2022-07-29T01:51:07;3.50;;;1.60;;
25948;SDS011;13961;51.178;4.448;2022-07-29T01:56:23;2.55;;;1.50;;
25948;SDS011;13961;51.178;4.448;2022-07-29T01:58:51;4.18;;;1.63;;
25948;SDS011;13961;51.178;4.448;2022-07-29T02:01:19;3.22;;;1.40;;
25948;SDS011;13961;51.178;4.448;2022-07-29T02:03:46;3.85;;;1.55;;
25948;SDS011;13961;51.178;4.448;2022-07-29T02:06:15;1.65;;;1.55;;
25948;SDS011;13961;51.178;4.448;2022-07-29T02:08:43;2.83;;;1.73;;
25948;SDS011;13961;51.178;4.448;2022-07-29T02:11:11;3.40;;;1.60;;
25948;SDS011;13961;51.178;4.448;2022-07-29T02:13:37;2.13;;;1.52;;
25948;SDS011;13961;51.178;4.448;2022-07-29T02:16:04;3.60;;;1.70;;
25948;SDS011;13961;51.178;4.448;2022-07-29T02:18:32;3.30;;;1.75;;
25948;SDS011;13961;51.178;4.448;2022-07-29T02:21:01;1.85;;;1.40;;
25948;SDS011;13961;51.178;4.448;2022-07-29T02:23:28;5.18;;;1.60;;
25948;SDS011;13961;51.178;4.448;2022-07-29T02:25:57;1.98;;;1.60;;
25948;SDS011;13961;51.178;4.448;2022-07-29T02:28:25;2.58;;;1.45;;
25948;SDS011;13961;51.178;4.448;2022-07-29T02:30:53;1.90;;;1.52;;
25948;SDS011;13961;51.178;4.448;2022-07-29T02:33:23;2.97;;;1.50;;
25948;SDS011;13961;51.178;4.448;2022-07-29T02:35:50;1.75;;;1.42;;
25948;SDS011;13961;51.178;4.448;2022-07-29T02:38:17;2.88;;;1.63;;
25948;SDS011;13961;51.178;4.448;2022-07-29T02:41:05;2.78;;;1.42;;
25948;SDS011;13961;51.178;4.448;2022-07-29T02:43:36;2.40;;;1.63;;
25948;SDS011;13961;51.178;4.448;2022-07-29T02:46:04;3.28;;;1.77;;
25948;SDS011;13961;51.178;4.448;2022-07-29T02:48:36;3.70;;;1.27;;
25948;SDS011;13961;51.178;4.448;2022-07-29T02:51:27;3.60;;;1.30;;
25948;SDS011;13961;51.178;4.448;2022-07-29T02:53:58;2.72;;;1.50;;
25948;SDS011;13961;51.178;4.448;2022-07-29T02:56:28;1.95;;;1.60;;
25948;SDS011;13961;51.178;4.448;2022-07-29T02:59:00;1.60;;;1.48;;
25948;SDS011;13961;51.178;4.448;2022-07-29T03:01:30;1.63;;;1.48;;
25948;SDS011;13961;51.178;4.448;2022-07-29T03:03:57;3.65;;;1.60;;
25948;SDS011;13961;51.178;4.448;2022-07-29T03:06:28;5.30;;;1.35;;
25948;SDS011;13961;51.178;4.448;2022-07-29T03:08:55;4.75;;;1.50;;
25948;SDS011;13961;51.178;4.448;2022-07-29T03:11:22;2.63;;;1.27;;
25948;SDS011;13961;51.178;4.448;2022-07-29T03:13:49;4.53;;;1.30;;
25948;SDS011;13961;51.178;4.448;2022-07-29T03:16:15;3.22;;;1.20;;
25948;SDS011;13961;51.178;4.448;2022-07-29T03:18:43;3.85;;;1.73;;
25948;SDS011;13961;51.178;4.448;2022-07-29T03:21:09;3.40;;;1.73;;
25948;SDS011;13961;51.178;4.448;2022-07-29T03:23:34;3.75;;;1.60;;
25948;SDS011;13961;51.178;4.448;2022-07-29T03:26:00;2.70;;;1.45;;
25948;SDS011;13961;51.178;4.448;2022-07-29T03:28:26;1.42;;;1.33;;
25948;SDS011;13961;51.178;4.448;2022-07-29T03:30:52;1.42;;;1.30;;
25948;SDS011;13961;51.178;4.448;2022-07-29T03:33:18;2.65;;;1.40;;
25948;SDS011;13961;51.178;4.448;2022-07-29T03:35:44;2.00;;;1.42;;
25948;SDS011;13961;51.178;4.448;2022-07-29T03:38:10;4.97;;;2.03;;
25948;SDS011;13961;51.178;4.448;2022-07-29T03:40:46;1.98;;;1.50;;
25948;SDS011;13961;51.178;4.448;2022-07-29T03:43:16;1.98;;;1.40;;
25948;SDS011;13961;51.178;4.448;2022-07-29T03:45:44;4.95;;;1.67;;
25948;SDS011;13961;51.178;4.448;2022-07-29T03:48:13;3.88;;;1.75;;
25948;SDS011;13961;51.178;4.448;2022-07-29T03:50:42;1.60;;;1.35;;
25948;SDS011;13961;51.178;4.448;2022-07-29T03:53:08;4.05;;;1.40;;
25948;SDS011;13961;51.178;4.448;2022-07-29T03:55:36;3.47;;;1.30;;
25948;SDS011;13961;51.178;4.448;2022-07-29T03:58:06;1.33;;;1.23;;
25948;SDS011;13961;51.178;4.448;2022-07-29T04:00:33;2.30;;;1.50;;
25948;SDS011;13961;51.178;4.448;2022-07-29T04:03:00;1.58;;;1.33;;
25948;SDS011;13961;51.178;4.448;2022-07-29T04:05:27;2.55;;;1.58;;
25948;SDS011;13961;51.178;4.448;2022-07-29T04:07:53;2.20;;;1.70;;
25948;SDS011;13961;51.178;4.448;2022-07-29T04:10:19;2.40;;;1.50;;
25948;SDS011;13961;51.178;4.448;2022-07-29T04:12:44;2.88;;;1.80;;
25948;SDS011;13961;51.178;4.448;2022-07-29T04:15:10;4.07;;;1.25;;
25948;SDS011;13961;51.178;4.448;2022-07-29T04:17:36;1.95;;;1.50;;
25948;SDS011;13961;51.178;4.448;2022-07-29T04:20:03;5.03;;;1.60;;
25948;SDS011;13961;51.178;4.448;2022-07-29T04:22:29;1.70;;;1.55;;
25948;SDS011;13961;51.178;4.448;2022-07-29T04:24:55;2.90;;;1.50;;
25948;SDS011;13961;51.178;4.448;2022-07-29T04:27:20;2.55;;;1.70;;
25948;SDS011;13961;51.178;4.448;2022-07-29T04:29:46;2.88;;;1.58;;
25948;SDS011;13961;51.178;4.448;2022-07-29T04:32:12;2.38;;;1.77;;
25948;SDS011;13961;51.178;4.448;2022-07-29T04:34:37;2.28;;;1.60;;
25948;SDS011;13961;51.178;4.448;2022-07-29T04:37:03;2.10;;;1.80;;
25948;SDS011;13961;51.178;4.448;2022-07-29T04:39:29;1.83;;;1.58;;
25948;SDS011;13961;51.178;4.448;2022-07-29T04:41:54;2.63;;;2.00;;
25948;SDS011;13961;51.178;4.448;2022-07-29T04:44:20;4.43;;;2.10;;
25948;SDS011;13961;51.178;4.448;2022-07-29T04:46:46;2.78;;;1.80;;
25948;SDS011;13961;51.178;4.448;2022-07-29T04:49:12;1.90;;;1.63;;
25948;SDS011;13961;51.178;4.448;2022-07-29T04:51:38;3.83;;;1.95;;
25948;SDS011;13961;51.178;4.448;2022-07-29T04:54:03;6.93;;;1.70;;
25948;SDS011;13961;51.178;4.448;2022-07-29T04:56:29;2.67;;;1.85;;
25948;SDS011;13961;51.178;4.448;2022-07-29T04:58:55;2.53;;;1.73;;
25948;SDS011;13961;51.178;4.448;2022-07-29T05:01:20;3.90;;;1.80;;
25948;SDS011;13961;51.178;4.448;2022-07-29T05:03:46;2.10;;;1.80;;
25948;SDS011;13961;51.178;4.448;2022-07-29T05:06:11;4.72;;;1.90;;
25948;SDS011;13961;51.178;4.448;2022-07-29T05:08:37;2.92;;;1.60;;
25948;SDS011;13961;51.178;4.448;2022-07-29T05:11:03;3.55;;;2.10;;
25948;SDS011;13961;51.178;4.448;2022-07-29T05:13:29;2.25;;;1.90;;
25948;SDS011;13961;51.178;4.448;2022-07-29T05:15:54;2.60;;;1.48;;
25948;SDS011;13961;51.178;4.448;2022-07-29T05:18:20;3.67;;;1.90;;
25948;SDS011;13961;51.178;4.448;2022-07-29T05:20:46;1.92;;;1.70;;
25948;SDS011;13961;51.178;4.448;2022-07-29T05:23:11;3.33;;;1.83;;
25948;SDS011;13961;51.178;4.448;2022-07-29T05:25:37;5.03;;;2.00;;
25948;SDS011;13961;51.178;4.448;2022-07-29T05:28:03;2.90;;;1.77;;
25948;SDS011;13961;51.178;4.448;2022-07-29T05:30:29;4.43;;;1.98;;
25948;SDS011;13961;51.178;4.448;2022-07-29T05:32:55;2.63;;;1.85;;
25948;SDS011;13961;51.178;4.448;2022-07-29T05:35:20;4.95;;;1.98;;
25948;SDS011;13961;51.178;4.448;2022-07-29T05:37:46;4.00;;;2.03;;
25948;SDS011;13961;51.178;4.448;2022-07-29T05:40:12;3.08;;;1.77;;
25948;SDS011;13961;51.178;4.448;2022-07-29T05:42:37;2.30;;;1.95;;
25948;SDS011;13961;51.178;4.448;2022-07-29T05:45:03;2.05;;;1.73;;
25948;SDS011;13961;51.178;4.448;2022-07-29T05:47:29;1.95;;;1.60;;
25948;SDS011;13961;51.178;4.448;2022-07-29T05:49:55;6.20;;;2.10;;
25948;SDS011;13961;51.178;4.448;2022-07-29T05:52:21;2.75;;;2.28;;
25948;SDS011;13961;51.178;4.448;2022-07-29T05:54:47;3.97;;;2.13;;
25948;SDS011;13961;51.178;4.448;2022-07-29T05:57:16;2.33;;;1.92;;
25948;SDS011;13961;51.178;4.448;2022-07-29T05:59:47;4.32;;;1.83;;
25948;SDS011;13961;51.178;4.448;2022-07-29T06:02:13;2.55;;;1.98;;
25948;SDS011;13961;51.178;4.448;2022-07-29T06:04:39;2.53;;;2.20;;
25948;SDS011;13961;51.178;4.448;2022-07-29T06:07:05;2.78;;;1.95;;
25948;SDS011;13961;51.178;4.448;2022-07-29T06:09:31;3.85;;;2.10;;
25948;SDS011;13961;51.178;4.448;2022-07-29T06:11:57;4.00;;;1.95;;
25948;SDS011;13961;51.178;4.448;2022-07-29T06:14:23;2.30;;;2.00;;
25948;SDS011;13961;51.178;4.448;2022-07-29T06:16:49;5.40;;;2.40;;
25948;SDS011;13961;51.178;4.448;2022-07-29T06:19:14;3.40;;;2.10;;
25948;SDS011;13961;51.178;4.448;2022-07-29T06:21:43;3.80;;;2.05;;
25948;SDS011;13961;51.178;4.448;2022-07-29T06:24:13;5.15;;;2.38;;
25948;SDS011;13961;51.178;4.448;2022-07-29T06:26:39;4.80;;;2.60;;
25948;SDS011;13961;51.178;4.448;2022-07-29T06:29:08;2.33;;;2.13;;
25948;SDS011;13961;51.178;4.448;2022-07-29T06:31:35;2.72;;;1.95;;
25948;SDS011;13961;51.178;4.448;2022-07-29T06:34:01;4.05;;;2.42;;
25948;SDS011;13961;51.178;4.448;2022-07-29T06:36:27;3.20;;;2.10;;
25948;SDS011;13961;51.178;4.448;2022-07-29T06:38:53;3.25;;;1.90;;
25948;SDS011;13961;51.178;4.448;2022-07-29T06:41:19;3.50;;;2.00;;
25948;SDS011;13961;51.178;4.448;2022-07-29T06:43:45;3.35;;;2.17;;
25948;SDS011;13961;51.178;4.448;2022-07-29T06:46:12;3.08;;;2.00;;
25948;SDS011;13961;51.178;4.448;2022-07-29T06:48:40;2.83;;;2.20;;
25948;SDS011;13961;51.178;4.448;2022-07-29T06:51:10;4.60;;;2.30;;
25948;SDS011;13961;51.178;4.448;2022-07-29T06:53:39;5.43;;;2.72;;
25948;SDS011;13961;51.178;4.448;2022-07-29T06:56:05;4.70;;;2.60;;
25948;SDS011;13961;51.178;4.448;2022-07-29T06:58:33;2.58;;;2.35;;
25948;SDS011;13961;51.178;4.448;2022-07-29T07:01:03;4.47;;;2.55;;
25948;SDS011;13961;51.178;4.448;2022-07-29T07:03:30;4.22;;;2.78;;
25948;SDS011;13961;51.178;4.448;2022-07-29T07:05:56;3.55;;;2.72;;
25948;SDS011;13961;51.178;4.448;2022-07-29T07:08:22;2.92;;;2.40;;
25948;SDS011;13961;51.178;4.448;2022-07-29T07:10:48;2.50;;;2.30;;
25948;SDS011;13961;51.178;4.448;2022-07-29T07:13:15;3.10;;;2.58;;
25948;SDS011;13961;51.178;4.448;2022-07-29T07:15:42;5.75;;;2.30;;
25948;SDS011;13961;51.178;4.448;2022-07-29T07:18:09;2.90;;;2.42;;
25948;SDS011;13961;51.178;4.448;2022-07-29T07:20:35;4.50;;;2.75;;
25948;SDS011;13961;51.178;4.448;2022-07-29T07:23:01;4.22;;;2.55;;
25948;SDS011;13961;51.178;4.448;2022-07-29T07:25:27;2.50;;;2.30;;
25948;SDS011;13961;51.178;4.448;2022-07-29T07:27:52;2.90;;;2.58;;
25948;SDS011;13961;51.178;4.448;2022-07-29T07:30:18;3.35;;;2.58;;
25948;SDS011;13961;51.178;4.448;2022-07-29T07:32:44;3.88;;;2.70;;
25948;SDS011;13961;51.178;4.448;2022-07-29T07:35:09;4.40;;;2.50;;
25948;SDS011;13961;51.178;4.448;2022-07-29T07:37:35;3.40;;;2.58;;
25948;SDS011;13961;51.178;4.448;2022-07-29T07:40:02;3.05;;;2.53;;
25948;SDS011;13961;51.178;4.448;2022-07-29T07:42:28;2.80;;;2.30;;
25948;SDS011;13961;51.178;4.448;2022-07-29T07:44:54;3.72;;;2.65;;
25948;SDS011;13961;51.178;4.448;2022-07-29T07:47:19;3.65;;;2.25;;
25948;SDS011;13961;51.178;4.448;2022-07-29T07:49:49;3.22;;;2.33;;
25948;SDS011;13961;51.178;4.448;2022-07-29T07:52:16;3.05;;;2.40;;
25948;SDS011;13961;51.178;4.448;2022-07-29T07:54:42;4.05;;;2.65;;
25948;SDS011;13961;51.178;4.448;2022-07-29T07:57:09;4.03;;;2.70;;
25948;SDS011;13961;51.178;4.448;2022-07-29T07:59:38;4.65;;;2.60;;
25948;SDS011;13961;51.178;4.448;2022-07-29T08:02:05;3.70;;;2.30;;
25948;SDS011;13961;51.178;4.448;2022-07-29T08:04:31;4.22;;;2.33;;
25948;SDS011;13961;51.178;4.448;2022-07-29T08:06:57;2.50;;;2.30;;
25948;SDS011;13961;51.178;4.448;2022-07-29T08:09:24;3.80;;;2.65;;
25948;SDS011;13961;51.178;4.448;2022-07-29T08:11:51;2.53;;;2.15;;
25948;SDS011;13961;51.178;4.448;2022-07-29T08:14:17;3.55;;;2.65;;
25948;SDS011;13961;51.178;4.448;2022-07-29T08:16:43;3.60;;;2.42;;
25948;SDS011;13961;51.178;4.448;2022-07-29T08:19:09;2.70;;;2.42;;
25948;SDS011;13961;51.178;4.448;2022-07-29T08:21:35;3.22;;;2.78;;
25948;SDS011;13961;51.178;4.448;2022-07-29T08:24:01;4.03;;;2.50;;
25948;SDS011;13961;51.178;4.448;2022-07-29T08:26:45;4.10;;;2.50;;
25948;SDS011;13961;51.178;4.448;2022-07-29T08:29:11;2.75;;;1.95;;
25948;SDS011;13961;51.178;4.448;2022-07-29T08:31:37;3.38;;;2.40;;
25948;SDS011;13961;51.178;4.448;2022-07-29T08:34:03;4.75;;;2.30;;
25948;SDS011;13961;51.178;4.448;2022-07-29T08:36:29;3.63;;;2.20;;
25948;SDS011;13961;51.178;4.448;2022-07-29T08:38:55;2.60;;;2.10;;
25948;SDS011;13961;51.178;4.448;2022-07-29T08:41:21;2.22;;;1.92;;
25948;SDS011;13961;51.178;4.448;2022-07-29T08:43:48;2.30;;;2.10;;
25948;SDS011;13961;51.178;4.448;2022-07-29T08:46:14;4.32;;;1.63;;
25948;SDS011;13961;51.178;4.448;2022-07-29T08:48:41;3.28;;;2.20;;
25948;SDS011;13961;51.178;4.448;2022-07-29T08:51:07;2.53;;;1.98;;
25948;SDS011;13961;51.178;4.448;2022-07-29T08:53:33;2.53;;;1.90;;
25948;SDS011;13961;51.178;4.448;2022-07-29T08:55:59;2.90;;;2.30;;
25948;SDS011;13961;51.178;4.448;2022-07-29T08:58:27;7.75;;;2.25;;
25948;SDS011;13961;51.178;4.448;2022-07-29T09:00:57;2.90;;;2.22;;
25948;SDS011;13961;51.178;4.448;2022-07-29T09:03:29;2.63;;;2.13;;
25948;SDS011;13961;51.178;4.448;2022-07-29T09:05:56;2.70;;;2.10;;
25948;SDS011;13961;51.178;4.448;2022-07-29T09:08:26;2.90;;;1.80;;
25948;SDS011;13961;51.178;4.448;2022-07-29T09:10:53;3.17;;;1.77;;
25948;SDS011;13961;51.178;4.448;2022-07-29T09:13:21;3.00;;;1.90;;
25948;SDS011;13961;51.178;4.448;2022-07-29T09:15:47;2.20;;;1.83;;
25948;SDS011;13961;51.178;4.448;2022-07-29T09:18:32;2.28;;;2.03;;
25948;SDS011;13961;51.178;4.448;2022-07-29T09:21:00;2.72;;;2.15;;
25948;SDS011;13961;51.178;4.448;2022-07-29T09:26:35;4.32;;;1.80;;
25948;SDS011;13961;51.178;4.448;2022-07-29T09:29:10;2.17;;;1.70;;
25948;SDS011;13961;51.178;4.448;2022-07-29T09:31:45;2.35;;;1.85;;
25948;SDS011;13961;51.178;4.448;2022-07-29T09:34:12;2.55;;;1.75;;
25948;SDS011;13961;51.178;4.448;2022-07-29T09:36:40;2.78;;;1.42;;
25948;SDS011;13961;51.178;4.448;2022-07-29T09:39:07;1.80;;;1.70;;
25948;SDS011;13961;51.178;4.448;2022-07-29T09:41:49;3.63;;;1.90;;
25948;SDS011;13961;51.178;4.448;2022-07-29T09:44:18;2.80;;;1.40;;
25948;SDS011;13961;51.178;4.448;2022-07-29T09:49:31;5.40;;;1.90;;
25948;SDS011;13961;51.178;4.448;2022-07-29T09:51:59;2.00;;;1.80;;
25948;SDS011;13961;51.178;4.448;2022-07-29T09:54:29;3.53;;;1.80;;
25948;SDS011;13961;51.178;4.448;2022-07-29T09:56:59;1.23;;;1.13;;
25948;SDS011;13961;51.178;4.448;2022-07-29T09:59:25;3.53;;;1.55;;
25948;SDS011;13961;51.178;4.448;2022-07-29T10:01:51;1.50;;;1.40;;
25948;SDS011;13961;51.178;4.448;2022-07-29T10:04:18;2.55;;;1.70;;
25948;SDS011;13961;51.178;4.448;2022-07-29T10:09:26;3.47;;;1.40;;
25948;SDS011;13961;51.178;4.448;2022-07-29T10:12:02;7.43;;;1.75;;
25948;SDS011;13961;51.178;4.448;2022-07-29T10:14:35;2.67;;;1.55;;
25948;SDS011;13961;51.178;4.448;2022-07-29T10:17:02;2.30;;;1.33;;
25948;SDS011;13961;51.178;4.448;2022-07-29T10:19:29;3.45;;;1.40;;
25948;SDS011;13961;51.178;4.448;2022-07-29T10:21:57;1.88;;;1.30;;
25948;SDS011;13961;51.178;4.448;2022-07-29T10:24:24;2.72;;;1.27;;
25948;SDS011;13961;51.178;4.448;2022-07-29T10:26:55;4.05;;;1.58;;
25948;SDS011;13961;51.178;4.448;2022-07-29T10:29:22;1.90;;;1.52;;
25948;SDS011;13961;51.178;4.448;2022-07-29T10:31:50;3.67;;;2.03;;
25948;SDS011;13961;51.178;4.448;2022-07-29T10:34:44;2.70;;;1.77;;
25948;SDS011;13961;51.178;4.448;2022-07-29T10:43:32;3.53;;;1.90;;
25948;SDS011;13961;51.178;4.448;2022-07-29T10:46:01;2.60;;;1.65;;
25948;SDS011;13961;51.178;4.448;2022-07-29T10:48:27;3.22;;;1.90;;
25948;SDS011;13961;51.178;4.448;2022-07-29T10:51:01;3.90;;;2.08;;
25948;SDS011;13961;51.178;4.448;2022-07-29T10:56:24;2.28;;;1.90;;
25948;SDS011;13961;51.178;4.448;2022-07-29T11:01:51;2.28;;;2.08;;
25948;SDS011;13961;51.178;4.448;2022-07-29T11:07:17;2.95;;;1.50;;
25948;SDS011;13961;51.178;4.448;2022-07-29T11:09:43;1.95;;;1.73;;
25948;SDS011;13961;51.178;4.448;2022-07-29T11:15:00;2.70;;;2.20;;
25948;SDS011;13961;51.178;4.448;2022-07-29T11:17:27;3.13;;;1.95;;
25948;SDS011;13961;51.178;4.448;2022-07-29T11:25:22;2.22;;;2.03;;
25948;SDS011;13961;51.178;4.448;2022-07-29T11:27:49;3.28;;;1.90;;
25948;SDS011;13961;51.178;4.448;2022-07-29T11:30:16;3.78;;;2.55;;
25948;SDS011;13961;51.178;4.448;2022-07-29T11:32:42;5.47;;;2.33;;
25948;SDS011;13961;51.178;4.448;2022-07-29T11:35:13;3.95;;;1.95;;
25948;SDS011;13961;51.178;4.448;2022-07-29T11:37:57;2.50;;;2.10;;
25948;SDS011;13961;51.178;4.448;2022-07-29T11:49:25;4.57;;;2.42;;
25948;SDS011;13961;51.178;4.448;2022-07-29T11:51:55;2.78;;;2.35;;
25948;SDS011;13961;51.178;4.448;2022-07-29T11:54:25;4.53;;;2.40;;
25948;SDS011;13961;51.178;4.448;2022-07-29T11:56:58;3.13;;;2.47;;
25948;SDS011;13961;51.178;4.448;2022-07-29T11:59:24;6.07;;;3.25;;
25948;SDS011;13961;51.178;4.448;2022-07-29T12:01:55;7.80;;;3.78;;
25948;SDS011;13961;51.178;4.448;2022-07-29T12:04:21;5.28;;;3.15;;
25948;SDS011;13961;51.178;4.448;2022-07-29T12:06:51;4.57;;;2.72;;
25948;SDS011;13961;51.178;4.448;2022-07-29T12:09:18;2.85;;;2.55;;
25948;SDS011;13961;51.178;4.448;2022-07-29T12:11:45;4.97;;;3.28;;
25948;SDS011;13961;51.178;4.448;2022-07-29T12:14:30;5.25;;;2.35;;
25948;SDS011;13961;51.178;4.448;2022-07-29T12:16:57;5.30;;;3.70;;
25948;SDS011;13961;51.178;4.448;2022-07-29T12:19:23;5.70;;;3.30;;
25948;SDS011;13961;51.178;4.448;2022-07-29T12:21:50;6.05;;;3.63;;
25948;SDS011;13961;51.178;4.448;2022-07-29T12:24:17;6.65;;;3.10;;
25948;SDS011;13961;51.178;4.448;2022-07-29T12:29:17;7.43;;;2.60;;
25948;SDS011;13961;51.178;4.448;2022-07-29T12:31:43;3.53;;;2.45;;
25948;SDS011;13961;51.178;4.448;2022-07-29T12:34:10;6.22;;;3.05;;
25948;SDS011;13961;51.178;4.448;2022-07-29T12:36:37;5.10;;;3.47;;
25948;SDS011;13961;51.178;4.448;2022-07-29T12:39:03;5.60;;;3.20;;
25948;SDS011;13961;51.178;4.448;2022-07-29T12:41:29;5.00;;;3.20;;
25948;SDS011;13961;51.178;4.448;2022-07-29T12:43:55;5.95;;;3.00;;
25948;SDS011;13961;51.178;4.448;2022-07-29T12:46:21;5.70;;;3.70;;
25948;SDS011;13961;51.178;4.448;2022-07-29T12:48:50;4.25;;;2.80;;
25948;SDS011;13961;51.178;4.448;2022-07-29T12:51:29;4.95;;;3.33;;
25948;SDS011;13961;51.178;4.448;2022-07-29T12:54:01;5.90;;;3.22;;
25948;SDS011;13961;51.178;4.448;2022-07-29T12:56:32;5.43;;;3.72;;
25948;SDS011;13961;51.178;4.448;2022-07-29T12:58:58;4.20;;;3.40;;
25948;SDS011;13961;51.178;4.448;2022-07-29T13:01:23;3.88;;;2.80;;
25948;SDS011;13961;51.178;4.448;2022-07-29T13:03:53;3.53;;;2.92;;
25948;SDS011;13961;51.178;4.448;2022-07-29T13:11:37;5.55;;;3.47;;
25948;SDS011;13961;51.178;4.448;2022-07-29T13:14:29;3.85;;;3.17;;
25948;SDS011;13961;51.178;4.448;2022-07-29T13:19:36;4.82;;;2.90;;
25948;SDS011;13961;51.178;4.448;2022-07-29T13:22:05;4.80;;;2.78;;
25948;SDS011;13961;51.178;4.448;2022-07-29T13:24:32;2.78;;;2.28;;
25948;SDS011;13961;51.178;4.448;2022-07-29T13:26:58;4.40;;;2.70;;
25948;SDS011;13961;51.178;4.448;2022-07-29T13:29:23;4.43;;;2.40;;
25948;SDS011;13961;51.178;4.448;2022-07-29T13:31:49;6.05;;;2.85;;
25948;SDS011;13961;51.178;4.448;2022-07-29T13:34:15;2.95;;;2.38;;
25948;SDS011;13961;51.178;4.448;2022-07-29T13:36:41;5.30;;;2.65;;
25948;SDS011;13961;51.178;4.448;2022-07-29T13:39:06;4.80;;;2.53;;
25948;SDS011;13961;51.178;4.448;2022-07-29T13:41:32;3.97;;;2.78;;
25948;SDS011;13961;51.178;4.448;2022-07-29T13:43:57;4.90;;;2.50;;
25948;SDS011;13961;51.178;4.448;2022-07-29T13:46:23;4.03;;;2.13;;
25948;SDS011;13961;51.178;4.448;2022-07-29T13:48:49;4.75;;;2.85;;
25948;SDS011;13961;51.178;4.448;2022-07-29T13:51:15;3.97;;;2.60;;
25948;SDS011;13961;51.178;4.448;2022-07-29T13:53:41;4.45;;;3.05;;
25948;SDS011;13961;51.178;4.448;2022-07-29T13:56:06;8.40;;;2.88;;
25948;SDS011;13961;51.178;4.448;2022-07-29T13:58:32;6.95;;;3.63;;
25948;SDS011;13961;51.178;4.448;2022-07-29T14:00:58;5.45;;;3.42;;
25948;SDS011;13961;51.178;4.448;2022-07-29T14:03:24;3.83;;;2.83;;
25948;SDS011;13961;51.178;4.448;2022-07-29T14:05:50;4.78;;;2.35;;
25948;SDS011;13961;51.178;4.448;2022-07-29T14:08:15;3.05;;;2.28;;
25948;SDS011;13961;51.178;4.448;2022-07-29T14:10:41;3.22;;;2.38;;
25948;SDS011;13961;51.178;4.448;2022-07-29T14:13:07;3.25;;;2.47;;
25948;SDS011;13961;51.178;4.448;2022-07-29T14:15:32;3.35;;;2.17;;
25948;SDS011;13961;51.178;4.448;2022-07-29T14:17:58;4.07;;;2.20;;
25948;SDS011;13961;51.178;4.448;2022-07-29T14:20:24;3.50;;;2.40;;
25948;SDS011;13961;51.178;4.448;2022-07-29T14:22:50;2.65;;;2.10;;
25948;SDS011;13961;51.178;4.448;2022-07-29T14:25:15;5.72;;;3.05;;
25948;SDS011;13961;51.178;4.448;2022-07-29T14:27:42;5.65;;;3.00;;
25948;SDS011;13961;51.178;4.448;2022-07-29T14:30:08;4.15;;;2.95;;
25948;SDS011;13961;51.178;4.448;2022-07-29T14:32:34;3.97;;;2.70;;
25948;SDS011;13961;51.178;4.448;2022-07-29T14:35:00;2.88;;;2.47;;
25948;SDS011;13961;51.178;4.448;2022-07-29T14:37:26;4.80;;;3.20;;
25948;SDS011;13961;51.178;4.448;2022-07-29T14:39:51;3.92;;;2.40;;
25948;SDS011;13961;51.178;4.448;2022-07-29T14:42:17;3.83;;;2.80;;
25948;SDS011;13961;51.178;4.448;2022-07-29T14:44:42;5.88;;;3.78;;
25948;SDS011;13961;51.178;4.448;2022-07-29T14:47:08;3.20;;;2.80;;
25948;SDS011;13961;51.178;4.448;2022-07-29T14:49:34;4.90;;;2.88;;
25948;SDS011;13961;51.178;4.448;2022-07-29T14:52:00;4.13;;;2.90;;
25948;SDS011;13961;51.178;4.448;2022-07-29T14:54:26;3.58;;;2.80;;
25948;SDS011;13961;51.178;4.448;2022-07-29T14:56:51;3.40;;;2.67;;
25948;SDS011;13961;51.178;4.448;2022-07-29T14:59:20;7.03;;;3.40;;
25948;SDS011;13961;51.178;4.448;2022-07-29T15:01:45;5.07;;;2.85;;
25948;SDS011;13961;51.178;4.448;2022-07-29T15:04:11;5.57;;;3.22;;
25948;SDS011;13961;51.178;4.448;2022-07-29T15:06:36;6.55;;;2.92;;
25948;SDS011;13961;51.178;4.448;2022-07-29T15:09:02;4.68;;;2.70;;
25948;SDS011;13961;51.178;4.448;2022-07-29T15:11:28;6.88;;;2.80;;
25948;SDS011;13961;51.178;4.448;2022-07-29T15:13:54;5.07;;;2.58;;
25948;SDS011;13961;51.178;4.448;2022-07-29T15:16:19;6.85;;;2.60;;
25948;SDS011;13961;51.178;4.448;2022-07-29T15:18:45;4.05;;;2.72;;
25948;SDS011;13961;51.178;4.448;2022-07-29T15:21:10;4.38;;;2.55;;
25948;SDS011;13961;51.178;4.448;2022-07-29T15:23:36;4.60;;;2.55;;
25948;SDS011;13961;51.178;4.448;2022-07-29T15:26:02;4.93;;;2.72;;
25948;SDS011;13961;51.178;4.448;2022-07-29T15:28:28;8.93;;;3.40;;
25948;SDS011;13961;51.178;4.448;2022-07-29T15:30:54;7.43;;;3.03;;
25948;SDS011;13961;51.178;4.448;2022-07-29T15:33:20;4.20;;;3.17;;
25948;SDS011;13961;51.178;4.448;2022-07-29T15:35:45;6.43;;;3.78;;
25948;SDS011;13961;51.178;4.448;2022-07-29T15:38:11;5.30;;;3.65;;
25948;SDS011;13961;51.178;4.448;2022-07-29T15:40:37;4.45;;;2.85;;
25948;SDS011;13961;51.178;4.448;2022-07-29T15:43:06;4.57;;;3.30;;
25948;SDS011;13961;51.178;4.448;2022-07-29T15:45:38;4.45;;;3.33;;
25948;SDS011;13961;51.178;4.448;2022-07-29T15:48:06;5.78;;;3.05;;
25948;SDS011;13961;51.178;4.448;2022-07-29T15:50:33;4.10;;;2.85;;
25948;SDS011;13961;51.178;4.448;2022-07-29T15:52:59;8.32;;;2.80;;
25948;SDS011;13961;51.178;4.448;2022-07-29T15:55:25;3.72;;;2.42;;